createdAt,value
2022-11-13T00:01:12.323Z,10.80
2022-11-13T00:03:43.171Z,9.27
2022-11-13T00:06:13.629Z,11.17
2022-11-13T00:08:42.268Z,10.37
2022-11-13T00:11:12.684Z,12.23
2022-11-13T00:13:43.001Z,10.60
2022-11-13T00:16:14.007Z,10.33
2022-11-13T00:18:41.955Z,13.07
2022-11-13T00:21:12.961Z,10.23
2022-11-13T00:23:41.180Z,10.47
2022-11-13T00:26:11.233Z,10.30
2022-11-13T00:28:39.397Z,11.00
2022-11-13T00:31:10.303Z,10.43
2022-11-13T00:34:05.220Z,8.50
2022-11-13T00:36:28.280Z,10.17
2022-11-13T00:38:56.878Z,10.53
2022-11-13T00:41:25.465Z,9.17
2022-11-13T00:43:53.494Z,9.27
2022-11-13T00:46:22.795Z,8.30
2022-11-13T00:48:50.724Z,8.93
2022-11-13T00:51:19.929Z,8.70
2022-11-13T00:53:48.003Z,7.80
2022-11-13T00:56:16.026Z,8.90
2022-11-13T00:58:44.051Z,11.87
2022-11-13T01:01:14.449Z,8.80
2022-11-13T01:03:44.057Z,8.80
2022-11-13T01:06:15.322Z,7.90
2022-11-13T01:08:43.433Z,9.07
2022-11-13T01:11:12.938Z,8.17
2022-11-13T01:13:41.378Z,8.07
2022-11-13T01:16:11.525Z,7.57
2022-11-13T01:18:39.759Z,7.23
2022-11-13T01:21:12.608Z,8.10
2022-11-13T01:23:41.022Z,7.97
2022-11-13T01:26:13.106Z,7.13
2022-11-13T01:28:42.046Z,7.40
2022-11-13T01:31:12.119Z,8.37
2022-11-13T01:33:40.092Z,9.70
2022-11-13T01:36:12.839Z,8.27
2022-11-13T01:38:41.027Z,8.67
2022-11-13T01:41:13.821Z,6.80
2022-11-13T01:43:41.850Z,8.13
2022-11-13T01:46:19.420Z,7.67
2022-11-13T01:48:51.191Z,5.97
2022-11-13T01:51:27.232Z,7.43
2022-11-13T01:53:56.685Z,7.10
2022-11-13T01:56:25.095Z,8.13
2022-11-13T01:58:58.482Z,7.37
2022-11-13T02:01:26.566Z,7.77
2022-11-13T02:03:54.645Z,6.83
2022-11-13T02:06:24.610Z,8.10
2022-11-13T02:08:52.762Z,6.63
2022-11-13T02:11:21.638Z,6.97
2022-11-13T02:13:49.835Z,7.40
2022-11-13T02:16:18.860Z,6.00
2022-11-13T02:18:47.253Z,6.57
2022-11-13T02:21:28.391Z,6.20
2022-11-13T02:24:05.433Z,6.70
2022-11-13T02:26:35.719Z,7.37
2022-11-13T02:29:03.693Z,6.20
2022-11-13T02:31:31.725Z,7.20
2022-11-13T02:33:59.786Z,6.83
2022-11-13T02:36:29.626Z,6.37
2022-11-13T02:38:58.802Z,6.90
2022-11-13T02:41:26.814Z,6.80
2022-11-13T02:43:56.113Z,6.77
2022-11-13T02:46:24.059Z,6.57
2022-11-13T02:48:52.128Z,7.17
2022-11-13T02:51:20.084Z,6.70
2022-11-13T02:53:48.076Z,7.00
2022-11-13T02:56:16.191Z,5.40
2022-11-13T02:58:44.222Z,5.60
2022-11-13T03:01:13.532Z,6.50
2022-11-13T03:03:57.007Z,6.57
2022-11-13T03:06:25.696Z,6.40
2022-11-13T03:08:53.782Z,6.03
2022-11-13T03:11:21.728Z,6.93
2022-11-13T03:13:49.671Z,6.53
2022-11-13T03:16:19.196Z,5.60
2022-11-13T03:18:47.170Z,5.23
2022-11-13T03:21:16.721Z,6.33
2022-11-13T03:23:46.227Z,8.00
2022-11-13T03:26:16.498Z,5.87
2022-11-13T03:28:44.472Z,6.50
2022-11-13T03:31:13.550Z,7.00
2022-11-13T03:33:42.921Z,6.53
2022-11-13T03:36:10.994Z,6.13
2022-11-13T03:38:39.123Z,6.17
2022-11-13T03:41:07.329Z,6.03
2022-11-13T03:43:35.288Z,6.13
2022-11-13T03:46:03.371Z,5.33
2022-11-13T03:48:31.699Z,6.23
2022-11-13T03:51:01.753Z,6.70
2022-11-13T03:53:29.852Z,6.50
2022-11-13T03:55:57.828Z,6.13
2022-11-13T03:58:26.099Z,6.30
2022-11-13T04:00:56.441Z,4.93
2022-11-13T04:03:24.730Z,5.43
2022-11-13T04:05:52.776Z,5.13
2022-11-13T04:08:22.249Z,6.13
2022-11-13T04:10:50.293Z,5.57
2022-11-13T04:13:18.272Z,5.73
2022-11-13T04:15:46.358Z,6.63
2022-11-13T04:18:14.277Z,5.43
2022-11-13T04:20:42.219Z,4.97
2022-11-13T04:23:12.779Z,6.77
2022-11-13T04:25:42.152Z,5.50
2022-11-13T04:28:10.673Z,5.57
2022-11-13T04:30:39.056Z,5.20
2022-11-13T04:33:07.567Z,5.77
2022-11-13T04:35:35.681Z,5.00
2022-11-13T04:38:03.784Z,4.97
2022-11-13T04:40:31.782Z,5.80
2022-11-13T04:43:00.070Z,5.77
2022-11-13T04:45:28.544Z,4.93
2022-11-13T04:47:56.810Z,5.67
2022-11-13T04:50:24.944Z,5.37
2022-11-13T04:52:53.146Z,7.27
2022-11-13T04:55:21.446Z,5.37
2022-11-13T04:57:55.514Z,6.07
2022-11-13T05:00:25.419Z,5.47
2022-11-13T05:02:53.351Z,5.13
2022-11-13T05:05:21.678Z,5.60
2022-11-13T05:07:50.009Z,6.23
2022-11-13T05:10:18.085Z,7.27
2022-11-13T05:12:46.079Z,5.77
2022-11-13T05:15:14.029Z,6.23
2022-11-13T05:17:43.644Z,6.33
2022-11-13T05:20:12.726Z,5.63
2022-11-13T05:22:40.647Z,5.57
2022-11-13T05:25:09.449Z,6.43
2022-11-13T05:27:37.467Z,6.57
2022-11-13T05:30:06.206Z,6.53
2022-11-13T05:32:34.183Z,8.27
2022-11-13T05:35:03.588Z,6.10
2022-11-13T05:37:31.695Z,7.17
2022-11-13T05:39:59.609Z,7.53
2022-11-13T05:42:27.675Z,7.83
2022-11-13T05:44:55.607Z,7.17
2022-11-13T05:47:23.580Z,7.03
2022-11-13T05:49:52.147Z,7.57
2022-11-13T05:52:21.431Z,6.63
2022-11-13T05:54:49.379Z,6.57
2022-11-13T05:57:17.424Z,7.03
2022-11-13T05:59:45.487Z,6.67
2022-11-13T06:02:13.477Z,6.87
2022-11-13T06:04:41.567Z,7.17
2022-11-13T06:07:09.512Z,15.17
2022-11-13T06:09:38.857Z,7.13
2022-11-13T06:12:07.315Z,6.57
2022-11-13T06:14:35.279Z,5.67
2022-11-13T06:17:03.193Z,5.80
2022-11-13T06:19:31.267Z,5.90
2022-11-13T06:21:59.212Z,5.77
2022-11-13T06:24:27.174Z,6.33
2022-11-13T06:26:56.858Z,6.60
2022-11-13T06:29:24.766Z,6.67
2022-11-13T06:31:52.702Z,6.87
2022-11-13T06:34:20.806Z,6.53
2022-11-13T06:36:48.764Z,7.97
2022-11-13T06:39:16.813Z,7.97
2022-11-13T06:41:45.262Z,6.77
2022-11-13T06:44:14.608Z,7.80
2022-11-13T06:46:42.502Z,7.83
2022-11-13T06:49:10.479Z,8.57
2022-11-13T06:51:38.397Z,7.77
2022-11-13T06:54:06.544Z,7.90
2022-11-13T06:56:34.671Z,8.83
2022-11-13T06:59:07.629Z,8.43
2022-11-13T07:01:38.130Z,12.00
2022-11-13T07:04:06.368Z,7.70
2022-11-13T07:06:40.056Z,10.73
2022-11-13T07:09:08.515Z,8.77
2022-11-13T07:11:36.734Z,9.67
2022-11-13T07:14:06.416Z,8.70
2022-11-13T07:16:56.381Z,8.10
2022-11-13T07:19:23.745Z,7.73
2022-11-13T07:21:51.802Z,7.33
2022-11-13T07:24:19.737Z,8.17
2022-11-13T07:26:47.668Z,13.43
2022-11-13T07:29:16.970Z,7.70
2022-11-13T07:31:44.889Z,9.27
2022-11-13T07:34:12.807Z,7.33
2022-11-13T07:36:42.373Z,8.77
2022-11-13T07:39:10.640Z,8.53
2022-11-13T07:41:38.577Z,9.90
2022-11-13T07:44:09.406Z,8.47
2022-11-13T07:46:38.143Z,10.87
2022-11-13T07:49:06.443Z,9.47
2022-11-13T07:51:34.432Z,10.50
2022-11-13T07:54:03.971Z,12.90
2022-11-13T07:56:32.051Z,10.47
2022-11-13T07:59:00.533Z,10.47
2022-11-13T08:01:28.518Z,11.67
2022-11-13T08:03:57.078Z,10.20
2022-11-13T08:06:27.554Z,11.07
2022-11-13T08:08:55.634Z,10.47
2022-11-13T08:11:25.297Z,10.83
2022-11-13T08:13:53.747Z,12.67
2022-11-13T08:16:23.349Z,12.53
2022-11-13T08:18:51.612Z,12.67
2022-11-13T08:21:21.107Z,14.17
2022-11-13T08:23:50.265Z,11.73
2022-11-13T08:26:18.879Z,13.47
2022-11-13T08:28:48.347Z,11.57
2022-11-13T08:31:17.754Z,11.77
2022-11-13T08:33:45.987Z,12.30
2022-11-13T08:36:13.926Z,12.07
2022-11-13T08:38:41.934Z,12.13
2022-11-13T08:41:10.148Z,13.17
2022-11-13T08:43:38.095Z,13.80
2022-11-13T08:46:07.934Z,12.87
2022-11-13T08:48:36.548Z,12.57
2022-11-13T08:51:05.607Z,13.27
2022-11-13T08:53:33.539Z,12.57
2022-11-13T08:56:03.936Z,10.40
2022-11-13T08:58:32.315Z,11.87
2022-11-13T09:01:04.408Z,10.53
2022-11-13T09:03:36.142Z,10.50
2022-11-13T09:06:06.775Z,11.50
2022-11-13T09:08:34.730Z,10.93
2022-11-13T09:11:06.800Z,11.07
2022-11-13T09:13:39.817Z,10.40
2022-11-13T09:16:11.043Z,10.67
2022-11-13T09:18:40.380Z,9.70
2022-11-13T09:21:08.286Z,9.27
2022-11-13T09:23:36.335Z,11.33
2022-11-13T09:26:04.333Z,11.00
2022-11-13T09:28:32.350Z,10.23
2022-11-13T09:31:00.417Z,9.40
2022-11-13T09:33:28.387Z,10.63
2022-11-13T09:35:57.700Z,9.93
2022-11-13T09:38:25.897Z,10.77
2022-11-13T09:40:58.772Z,10.60
2022-11-13T09:43:40.477Z,13.47
2022-11-13T09:46:19.461Z,11.37
2022-11-13T09:48:52.365Z,11.03
2022-11-13T09:51:25.435Z,16.50
2022-11-13T09:53:54.017Z,11.50
2022-11-13T09:56:29.199Z,10.90
2022-11-13T09:59:07.596Z,11.57
2022-11-13T10:01:44.593Z,10.57
2022-11-13T10:04:16.191Z,10.53
2022-11-13T10:07:00.032Z,10.83
2022-11-13T10:09:38.337Z,11.47
2022-11-13T10:12:09.554Z,10.97
2022-11-13T10:14:46.049Z,11.33
2022-11-13T10:17:23.803Z,10.23
2022-11-13T10:19:58.343Z,11.67
2022-11-13T10:22:50.139Z,11.47
2022-11-13T10:25:27.747Z,11.67
2022-11-13T10:28:21.559Z,10.87
2022-11-13T10:30:55.217Z,10.13
2022-11-13T10:33:25.666Z,10.30
2022-11-13T10:35:59.447Z,10.10
2022-11-13T10:38:39.874Z,11.23
2022-11-13T10:41:13.848Z,12.33
2022-11-13T10:43:53.345Z,11.23
2022-11-13T10:46:24.673Z,11.00
2022-11-13T10:48:58.308Z,11.00
2022-11-13T10:51:29.036Z,11.27
2022-11-13T10:53:59.860Z,11.47
2022-11-13T10:56:29.705Z,10.73
2022-11-13T10:59:08.112Z,16.57
2022-11-13T11:01:41.507Z,10.37
2022-11-13T11:04:14.610Z,12.38
2022-11-13T11:09:43.158Z,10.67
2022-11-13T11:12:21.273Z,12.57
2022-11-13T11:15:21.168Z,11.30
2022-11-13T11:17:58.124Z,11.85
2022-11-13T11:20:43.956Z,12.85
2022-11-13T11:23:25.032Z,13.95
2022-11-13T11:25:59.680Z,10.27
2022-11-13T11:28:34.078Z,11.18
2022-11-13T11:31:12.734Z,12.15
2022-11-13T11:33:56.395Z,10.00
2022-11-13T11:36:51.534Z,14.27
2022-11-13T11:40:02.728Z,10.65
2022-11-13T11:43:29.853Z,10.07
2022-11-13T11:46:46.516Z,9.80
2022-11-13T11:57:11.564Z,12.07
2022-11-13T12:00:09.346Z,8.85
2022-11-13T12:03:46.496Z,10.93
2022-11-13T12:09:48.374Z,9.23
2022-11-13T12:12:38.645Z,10.20
2022-11-13T12:15:19.430Z,9.38
2022-11-13T12:17:59.648Z,8.93
2022-11-13T12:20:57.319Z,8.23
2022-11-13T12:23:57.557Z,10.50
2022-11-13T12:26:30.388Z,13.45
2022-11-13T12:29:15.575Z,8.85
2022-11-13T12:32:00.649Z,7.75
2022-11-13T12:34:43.822Z,7.05
2022-11-13T12:37:22.400Z,9.63
2022-11-13T12:40:08.119Z,7.85
2022-11-13T12:42:59.172Z,7.63
2022-11-13T12:49:25.557Z,7.72
2022-11-13T12:52:29.451Z,7.53
2022-11-13T12:55:41.084Z,6.53
2022-11-13T12:58:19.320Z,7.72
2022-11-13T13:00:58.924Z,10.02
2022-11-13T13:04:01.832Z,12.65
2022-11-13T13:09:48.578Z,13.43
2022-11-13T13:12:31.059Z,10.73
2022-11-13T13:15:26.769Z,15.45
2022-11-13T13:18:29.289Z,13.48
2022-11-13T13:21:08.778Z,11.52
2022-11-13T13:23:48.682Z,12.60
2022-11-13T13:26:53.395Z,12.60
2022-11-13T13:36:22.606Z,16.42
2022-11-13T13:42:12.852Z,13.45
2022-11-13T13:45:05.433Z,10.63
2022-11-13T13:48:06.866Z,10.07
2022-11-13T13:51:01.244Z,9.50
2022-11-13T13:54:04.015Z,9.10
2022-11-13T13:59:45.157Z,8.27
2022-11-13T14:05:32.750Z,7.45
2022-11-13T14:08:30.853Z,8.38
2022-11-13T14:11:27.105Z,8.32
2022-11-13T14:14:14.802Z,8.52
2022-11-13T14:16:57.315Z,7.90
2022-11-13T14:19:30.981Z,8.45
2022-11-13T14:22:07.835Z,9.15
2022-11-13T14:24:55.395Z,7.78
2022-11-13T14:27:31.190Z,7.75
2022-11-13T14:30:09.955Z,7.82
2022-11-13T14:32:46.937Z,8.13
2022-11-13T14:35:23.122Z,8.70
2022-11-13T14:37:54.710Z,7.80
2022-11-13T14:40:29.192Z,8.10
2022-11-13T14:43:00.085Z,8.48
2022-11-13T14:45:35.079Z,8.40
2022-11-13T14:48:23.590Z,8.35
2022-11-13T14:51:24.863Z,8.05
2022-11-13T14:55:13.813Z,6.97
2022-11-13T14:58:14.620Z,8.57
2022-11-13T15:01:01.881Z,7.95
2022-11-13T15:03:45.179Z,10.50
2022-11-13T15:06:18.744Z,7.70
2022-11-13T15:08:49.092Z,7.72
2022-11-13T15:11:18.606Z,9.07
2022-11-13T15:13:47.296Z,8.27
2022-11-13T15:16:17.796Z,7.53
2022-11-13T15:18:52.702Z,7.95
2022-11-13T15:21:20.963Z,8.02
2022-11-13T15:23:49.449Z,8.05
2022-11-13T15:26:18.450Z,8.93
2022-11-13T15:28:46.709Z,8.73
2022-11-13T15:31:20.549Z,8.93
2022-11-13T15:33:50.274Z,9.68
2022-11-13T15:36:18.316Z,8.73
2022-11-13T15:38:46.478Z,7.63
2022-11-13T15:41:16.747Z,8.05
2022-11-13T15:43:49.041Z,9.88
2022-11-13T15:46:18.769Z,14.48
2022-11-13T15:48:47.511Z,9.50
2022-11-13T15:51:22.580Z,9.67
2022-11-13T15:53:54.451Z,9.98
2022-11-13T15:56:23.065Z,10.50
2022-11-13T15:58:51.339Z,10.60
2022-11-13T16:01:20.448Z,10.07
2022-11-13T16:03:48.650Z,9.63
2022-11-13T16:06:23.353Z,9.90
2022-11-13T16:08:51.406Z,10.93
2022-11-13T16:11:21.025Z,9.80
2022-11-13T16:13:49.084Z,11.40
2022-11-13T16:16:20.632Z,9.43
2022-11-13T16:18:50.201Z,12.50
2022-11-13T16:21:21.280Z,12.40
2022-11-13T16:23:49.366Z,11.77
2022-11-13T16:26:21.788Z,12.23
2022-11-13T16:29:12.724Z,10.43
2022-11-13T16:31:41.620Z,13.60
2022-11-13T16:34:10.480Z,11.70
2022-11-13T16:36:40.275Z,12.77
2022-11-13T16:39:13.059Z,11.77
2022-11-13T16:41:41.147Z,16.47
2022-11-13T16:44:09.596Z,13.83
2022-11-13T16:46:42.346Z,13.37
2022-11-13T16:49:18.813Z,14.93
2022-11-13T16:51:48.352Z,14.90
2022-11-13T16:54:16.926Z,13.83
2022-11-13T16:56:48.075Z,15.43
2022-11-13T16:59:16.782Z,14.93
2022-11-13T17:01:45.032Z,15.50
2022-11-13T17:04:15.608Z,15.87
2022-11-13T17:06:44.063Z,16.57
2022-11-13T17:09:14.060Z,17.33
2022-11-13T17:11:44.185Z,18.30
2022-11-13T17:14:12.968Z,18.07
2022-11-13T17:16:41.537Z,18.87
2022-11-13T17:19:15.345Z,19.57
2022-11-13T17:21:44.565Z,18.10
2022-11-13T17:24:14.092Z,18.67
2022-11-13T17:26:42.183Z,19.40
2022-11-13T17:29:10.216Z,17.50
2022-11-13T17:31:38.334Z,19.77
2022-11-13T17:34:06.595Z,22.07
2022-11-13T17:36:34.687Z,22.00
2022-11-13T17:39:02.930Z,21.20
2022-11-13T17:41:32.433Z,24.30
2022-11-13T17:44:01.683Z,22.13
2022-11-13T17:46:29.769Z,22.03
2022-11-13T17:48:58.024Z,21.00
2022-11-13T17:51:26.101Z,20.40
2022-11-13T17:53:54.411Z,22.20
2022-11-13T17:56:23.125Z,23.23
2022-11-13T17:58:52.675Z,22.20
2022-11-13T18:01:22.637Z,22.10
2022-11-13T18:03:56.218Z,22.17
2022-11-13T18:06:25.285Z,25.23
2022-11-13T18:08:53.356Z,20.60
2022-11-13T18:11:23.783Z,21.13
2022-11-13T18:13:53.793Z,21.73
2022-11-13T18:16:24.266Z,20.97
2022-11-13T18:18:55.266Z,20.57
2022-11-13T18:21:25.747Z,22.63
2022-11-13T18:23:59.998Z,24.17
2022-11-13T18:26:29.248Z,21.83
2022-11-13T18:28:59.455Z,19.57
2022-11-13T18:31:27.881Z,20.07
2022-11-13T18:33:57.152Z,21.53
2022-11-13T18:36:26.410Z,19.80
2022-11-13T18:38:55.164Z,18.17
2022-11-13T18:41:24.114Z,18.43
2022-11-13T18:43:55.516Z,17.47
2022-11-13T18:46:25.193Z,16.50
2022-11-13T18:48:53.245Z,19.30
2022-11-13T18:51:23.108Z,17.87
2022-11-13T18:53:53.033Z,19.23
2022-11-13T18:56:23.378Z,21.73
2022-11-13T18:58:52.931Z,17.73
2022-11-13T19:01:23.209Z,19.40
2022-11-13T19:04:22.427Z,17.23
2022-11-13T19:06:41.581Z,16.67
2022-11-13T19:09:12.896Z,15.70
2022-11-13T19:11:41.124Z,15.77
2022-11-13T19:14:09.880Z,15.77
2022-11-13T19:16:39.472Z,16.43
2022-11-13T19:19:15.288Z,15.97
2022-11-13T19:21:43.364Z,19.50
2022-11-13T19:24:14.445Z,16.37
2022-11-13T19:26:43.040Z,14.83
2022-11-13T19:29:11.623Z,16.20
2022-11-13T19:31:39.782Z,15.03
2022-11-13T19:34:09.539Z,14.53
2022-11-13T19:36:40.958Z,15.87
2022-11-13T19:39:10.305Z,17.47
2022-11-13T19:41:38.298Z,14.30
2022-11-13T19:44:06.791Z,14.37
2022-11-13T19:46:34.827Z,13.47
2022-11-13T19:49:02.988Z,15.70
2022-11-13T19:51:32.674Z,14.27
2022-11-13T19:54:01.227Z,13.73
2022-11-13T19:56:30.080Z,15.37
2022-11-13T19:58:58.567Z,15.67
2022-11-13T20:01:28.027Z,14.80
2022-11-13T20:03:57.165Z,14.90
2022-11-13T20:06:25.993Z,14.57
2022-11-13T20:08:55.629Z,16.83
2022-11-13T20:11:23.746Z,18.47
2022-11-13T20:13:51.986Z,17.50
2022-11-13T20:16:23.523Z,16.70
2022-11-13T20:18:52.776Z,20.33
2022-11-13T20:21:25.325Z,17.53
2022-11-13T20:23:56.439Z,18.33
2022-11-13T20:26:24.431Z,17.27
2022-11-13T20:28:52.439Z,20.20
2022-11-13T20:31:22.290Z,18.77
2022-11-13T20:33:52.316Z,22.47
2022-11-13T20:36:20.675Z,19.23
2022-11-13T20:38:51.611Z,21.00
2022-11-13T20:41:21.610Z,19.70
2022-11-13T20:43:49.997Z,22.43
2022-11-13T20:46:20.301Z,21.80
2022-11-13T20:48:48.610Z,19.50
2022-11-13T20:51:19.382Z,21.83
2022-11-13T20:53:48.792Z,20.90
2022-11-13T20:56:18.601Z,21.37
2022-11-13T20:58:48.312Z,21.33
2022-11-13T21:01:18.069Z,19.43
2022-11-13T21:03:47.002Z,21.60
2022-11-13T21:06:18.076Z,21.70
2022-11-13T21:08:47.205Z,20.63
2022-11-13T21:11:18.981Z,21.33
2022-11-13T21:13:49.320Z,21.93
2022-11-13T21:16:18.157Z,24.20
2022-11-13T21:18:46.596Z,20.03
2022-11-13T21:21:17.078Z,24.70
2022-11-13T21:23:45.176Z,21.17
2022-11-13T21:26:14.758Z,29.23
2022-11-13T21:28:42.784Z,25.23
2022-11-13T21:31:16.464Z,24.17
2022-11-13T21:33:45.858Z,22.03
2022-11-13T21:36:15.511Z,23.07
2022-11-13T21:38:44.506Z,23.47
2022-11-13T21:41:24.679Z,24.07
2022-11-13T21:43:56.960Z,24.03
2022-11-13T21:46:29.155Z,24.67
2022-11-13T21:48:59.683Z,23.30
2022-11-13T21:51:28.091Z,22.77
2022-11-13T21:53:56.282Z,23.97
2022-11-13T21:56:25.368Z,24.13
2022-11-13T21:58:53.681Z,24.20
2022-11-13T22:01:23.602Z,24.40
2022-11-13T22:03:53.858Z,26.57
2022-11-13T22:06:24.252Z,24.50
2022-11-13T22:08:56.976Z,25.37
2022-11-13T22:11:25.832Z,24.33
2022-11-13T22:13:54.348Z,23.03
2022-11-13T22:16:22.845Z,23.33
2022-11-13T22:18:55.450Z,23.03
2022-11-13T22:21:25.136Z,22.80
2022-11-13T22:23:53.342Z,23.87
2022-11-13T22:26:22.760Z,20.77
2022-11-13T22:28:51.756Z,24.20
2022-11-13T22:31:21.634Z,24.23
2022-11-13T22:33:54.410Z,28.97
2022-11-13T22:36:27.327Z,22.60
2022-11-13T22:38:55.657Z,24.97
2022-11-13T22:41:25.558Z,23.80
2022-11-13T22:43:55.892Z,23.60
2022-11-13T22:46:26.351Z,22.83
2022-11-13T22:48:55.996Z,26.57
2022-11-13T22:51:26.938Z,25.73
2022-11-13T22:53:56.448Z,24.73
2022-11-13T22:56:26.657Z,25.50
2022-11-13T22:58:55.295Z,23.93
2022-11-13T23:01:25.207Z,25.07
2022-11-13T23:03:54.121Z,24.43
2022-11-13T23:06:24.359Z,22.73
2022-11-13T23:08:54.109Z,21.53
2022-11-13T23:11:23.484Z,23.43
2022-11-13T23:13:55.138Z,23.47
2022-11-13T23:16:24.445Z,22.97
2022-11-13T23:18:54.749Z,25.50
2022-11-13T23:21:23.770Z,25.90
2022-11-13T23:23:53.294Z,27.17
2022-11-13T23:26:21.951Z,23.97
2022-11-13T23:28:50.252Z,24.93
2022-11-13T23:31:18.448Z,25.27
2022-11-13T23:33:46.648Z,28.37
2022-11-13T23:36:15.492Z,23.83
2022-11-13T23:38:43.839Z,24.23
2022-11-13T23:41:13.667Z,26.10
2022-11-13T23:46:30.035Z,24.10
2022-11-13T23:48:58.131Z,23.57
2022-11-13T23:51:26.132Z,26.37
2022-11-13T23:53:54.132Z,23.67
2022-11-13T23:56:23.565Z,24.30
2022-11-13T23:58:53.203Z,22.40
